createdAt,value
2022-12-01T00:03:34.917Z,3599
2022-12-01T00:08:47.332Z,3502
2022-12-01T00:13:59.840Z,3478
2022-12-01T00:19:11.945Z,3468
2022-12-01T00:24:24.179Z,3526
2022-12-01T00:29:36.512Z,3595
2022-12-01T00:34:49.065Z,3476
2022-12-01T00:40:01.324Z,3578
2022-12-01T00:45:13.680Z,3638
2022-12-01T00:50:25.920Z,3520
2022-12-01T00:55:38.232Z,3558
2022-12-01T01:00:50.815Z,3582
2022-12-01T01:06:03.142Z,3509
2022-12-01T01:11:15.558Z,3351
2022-12-01T01:16:27.999Z,3619
2022-12-01T01:21:40.282Z,3507
2022-12-01T01:26:52.772Z,3439
2022-12-01T01:32:05.203Z,3571
2022-12-01T01:37:17.640Z,3455
2022-12-01T01:42:30.113Z,3379
2022-12-01T01:47:42.260Z,3379
2022-12-01T01:52:54.720Z,3567
2022-12-01T01:58:07.156Z,3383
2022-12-01T02:03:19.536Z,3426
2022-12-01T02:08:31.746Z,3500
2022-12-01T02:13:43.982Z,3414
2022-12-01T02:18:56.306Z,3571
2022-12-01T02:24:08.753Z,3500
2022-12-01T02:29:21.067Z,3558
2022-12-01T02:34:33.379Z,3321
2022-12-01T02:39:45.874Z,3290
2022-12-01T02:44:58.240Z,3494
2022-12-01T02:50:10.596Z,3520
2022-12-01T02:55:22.910Z,3394
2022-12-01T03:00:35.280Z,3522
2022-12-01T03:05:47.721Z,3318
2022-12-01T03:11:00.188Z,3426
2022-12-01T03:16:12.648Z,3413
2022-12-01T03:21:24.898Z,3429
2022-12-01T03:26:37.037Z,3374
2022-12-01T03:31:49.267Z,3480
2022-12-01T03:37:01.424Z,3528
2022-12-01T03:42:13.713Z,3435
2022-12-01T03:47:25.914Z,3604
2022-12-01T03:52:38.233Z,3446
2022-12-01T03:57:50.589Z,3331
2022-12-01T04:03:02.983Z,3465
2022-12-01T04:08:15.370Z,3323
2022-12-01T04:13:27.936Z,3476
2022-12-01T04:18:40.149Z,3530
2022-12-01T04:23:52.383Z,3357
2022-12-01T04:29:04.720Z,3249
2022-12-01T04:34:17.018Z,3509
2022-12-01T04:39:29.244Z,3346
2022-12-01T04:44:41.601Z,3353
2022-12-01T04:49:54.226Z,3281
2022-12-01T04:55:06.588Z,3543
2022-12-01T05:00:19.069Z,3346
2022-12-01T05:05:31.271Z,3411
2022-12-01T05:10:43.683Z,3316
2022-12-01T05:15:56.247Z,3586
2022-12-01T05:21:08.867Z,3303
2022-12-01T05:26:21.170Z,3524
2022-12-01T05:31:33.453Z,3465
2022-12-01T05:36:45.669Z,3336
2022-12-01T05:41:58.128Z,3463
2022-12-01T05:47:10.339Z,3401
2022-12-01T05:52:22.688Z,3461
2022-12-01T05:57:35.005Z,3400
2022-12-01T06:02:47.431Z,3461
2022-12-01T06:07:59.886Z,3426
2022-12-01T06:13:12.440Z,3385
2022-12-01T06:18:24.616Z,3461
2022-12-01T06:23:37.036Z,3204
2022-12-01T06:28:49.192Z,3463
2022-12-01T06:34:01.375Z,3517
2022-12-01T06:39:13.823Z,3454
2022-12-01T06:44:26.149Z,3403
2022-12-01T06:49:38.557Z,3258
2022-12-01T06:54:50.869Z,3348
2022-12-01T07:00:03.320Z,3467
2022-12-01T07:05:15.651Z,3348
2022-12-01T07:10:28.050Z,3321
2022-12-01T07:15:40.266Z,3448
2022-12-01T07:20:52.632Z,3260
2022-12-01T07:26:04.967Z,3333
2022-12-01T07:31:17.155Z,3379
2022-12-01T07:36:29.478Z,3424
2022-12-01T07:41:41.697Z,3377
2022-12-01T07:46:54.106Z,3437
2022-12-01T07:52:06.254Z,3310
2022-12-01T07:57:19.087Z,3489
2022-12-01T08:02:31.477Z,3435
2022-12-01T08:07:43.743Z,3366
2022-12-01T08:12:56.022Z,3290
2022-12-01T08:18:08.522Z,3314
2022-12-01T08:23:20.921Z,3439
2022-12-01T08:28:32.984Z,3394
2022-12-01T08:33:45.230Z,3498
2022-12-01T08:38:57.675Z,3189
2022-12-01T08:44:10.263Z,3208
2022-12-01T08:49:22.745Z,3424
2022-12-01T08:54:35.126Z,3411
2022-12-01T08:59:47.758Z,3431
2022-12-01T09:04:59.628Z,3342
2022-12-01T09:10:14.926Z,3221
2022-12-01T09:15:27.293Z,3377
2022-12-01T09:20:39.603Z,3351
2022-12-01T09:25:52.033Z,3184
2022-12-01T09:31:04.570Z,3323
2022-12-01T09:36:16.777Z,3401
2022-12-01T09:41:29.132Z,3331
2022-12-01T09:46:41.315Z,3474
2022-12-01T09:51:53.633Z,3228
2022-12-01T09:57:05.793Z,3241
2022-12-01T10:02:18.272Z,3130
2022-12-01T10:07:30.361Z,3388
2022-12-01T10:12:42.439Z,3003
2022-12-01T10:17:54.643Z,3087
2022-12-01T10:23:07.759Z,3409
2022-12-01T10:28:20.244Z,3323
2022-12-01T10:33:32.555Z,3098
2022-12-01T10:38:44.780Z,3214
2022-12-01T10:43:57.114Z,3348
2022-12-01T10:49:12.092Z,3422
2022-12-01T10:54:24.397Z,3396
2022-12-01T10:59:36.848Z,3368
2022-12-01T11:04:48.930Z,3307
2022-12-01T11:10:01.412Z,3388
2022-12-01T11:15:13.715Z,3370
2022-12-01T11:20:26.068Z,3454
2022-12-01T11:25:37.913Z,3375
2022-12-01T11:30:53.809Z,3241
2022-12-01T11:36:02.379Z,3379
2022-12-01T11:41:14.576Z,3368
2022-12-01T11:46:27.061Z,3435
2022-12-01T11:51:41.882Z,3353
2022-12-01T11:57:17.776Z,3426
2022-12-01T12:02:06.371Z,3424
2022-12-01T12:07:18.664Z,3485
2022-12-01T12:12:30.805Z,3359
2022-12-01T12:17:43.308Z,3351
2022-12-01T12:22:56.076Z,3405
2022-12-01T12:28:07.741Z,3411
2022-12-01T12:33:19.875Z,3403
2022-12-01T12:38:32.150Z,3467
2022-12-01T12:43:44.407Z,3392
2022-12-01T12:49:18.465Z,3454
2022-12-01T12:54:09.175Z,3448
2022-12-01T12:59:21.263Z,3420
2022-12-01T13:04:33.514Z,3439
2022-12-01T13:09:45.763Z,3377
2022-12-01T13:15:01.174Z,3269
2022-12-01T13:20:10.375Z,3262
2022-12-01T13:25:22.488Z,3353
2022-12-01T13:30:34.698Z,3414
2022-12-01T13:35:50.188Z,3227
2022-12-01T13:40:59.442Z,3264
2022-12-01T13:46:11.366Z,3387
2022-12-01T13:51:23.618Z,3106
2022-12-01T13:56:39.437Z,3104
2022-12-01T14:01:48.014Z,3202
2022-12-01T14:07:00.128Z,3119
2022-12-01T14:12:12.227Z,3228
2022-12-01T14:17:24.383Z,3227
2022-12-01T14:22:40.416Z,3150
2022-12-01T14:33:04.795Z,3128
2022-12-01T14:38:16.962Z,3054
2022-12-01T14:43:29.467Z,3078
2022-12-01T14:48:51.603Z,2682
2022-12-01T14:54:03.952Z,3137
2022-12-01T14:59:15.935Z,3109
2022-12-01T15:04:28.401Z,3098
2022-12-01T15:09:40.723Z,3108
2022-12-01T15:14:53.029Z,2992
2022-12-01T15:20:05.311Z,3156
2022-12-01T15:25:17.603Z,3193
2022-12-01T15:30:39.661Z,2912
2022-12-01T15:35:52.231Z,3035
2022-12-01T15:41:28.840Z,2847
2022-12-01T15:46:26.538Z,2998
2022-12-01T15:51:41.606Z,2925
2022-12-01T15:56:53.758Z,2749
2022-12-01T16:02:05.952Z,2819
2022-12-01T16:07:20.991Z,2775
2022-12-01T16:12:33.409Z,2864
2022-12-01T16:17:45.615Z,2834
2022-12-01T16:22:57.722Z,2743
2022-12-01T16:28:10.074Z,2827
2022-12-01T16:33:24.836Z,2856
2022-12-01T16:38:37.143Z,2736
2022-12-01T16:44:05.680Z,2702
2022-12-01T16:49:01.688Z,2775
2022-12-01T16:54:24.050Z,2617
2022-12-01T16:59:48.072Z,2520
2022-12-01T17:05:14.403Z,2306
